createdAt,value
2023-08-11T00:01:28.072Z,6.72
2023-08-11T00:04:01.008Z,7.82
2023-08-11T00:06:38.265Z,7.53
2023-08-11T00:09:12.343Z,7.55
2023-08-11T00:11:45.694Z,6.03
2023-08-11T00:14:18.983Z,6.55
2023-08-11T00:16:51.972Z,7.13
2023-08-11T00:19:24.946Z,8.18
2023-08-11T00:21:58.493Z,7.05
2023-08-11T00:24:31.479Z,7.28
2023-08-11T00:27:05.403Z,6.35
2023-08-11T00:29:38.741Z,8.85
2023-08-11T00:32:12.072Z,8.80
2023-08-11T00:34:44.998Z,8.70
2023-08-11T00:37:17.911Z,8.32
2023-08-11T00:39:52.685Z,8.15
2023-08-11T00:42:26.456Z,8.05
2023-08-11T00:45:00.426Z,8.13
2023-08-11T00:47:34.937Z,9.20
2023-08-11T00:50:08.840Z,7.20
2023-08-11T00:52:42.076Z,6.07
2023-08-11T00:55:15.914Z,8.75
2023-08-11T00:57:48.984Z,7.45
2023-08-11T01:00:22.745Z,8.73
2023-08-11T01:02:57.233Z,8.60
2023-08-11T01:05:34.853Z,8.07
2023-08-11T01:08:21.741Z,9.35
2023-08-11T01:11:09.327Z,8.40
2023-08-11T01:13:49.238Z,7.05
2023-08-11T01:16:25.224Z,7.88
2023-08-11T01:18:59.488Z,7.07
2023-08-11T01:21:36.531Z,7.88
2023-08-11T01:24:09.863Z,7.55
2023-08-11T01:26:42.841Z,7.07
2023-08-11T01:29:15.859Z,7.57
2023-08-11T01:31:48.754Z,7.43
2023-08-11T01:34:22.403Z,8.82
2023-08-11T01:37:00.834Z,6.93
2023-08-11T01:39:34.783Z,6.88
2023-08-11T01:42:07.799Z,7.03
2023-08-11T01:44:40.950Z,7.40
2023-08-11T01:47:14.026Z,7.15
2023-08-11T01:49:48.164Z,7.70
2023-08-11T01:52:22.151Z,7.50
2023-08-11T01:54:55.083Z,7.70
2023-08-11T01:57:28.141Z,9.07
2023-08-11T02:00:01.103Z,7.25
2023-08-11T02:02:46.945Z,8.13
2023-08-11T02:05:19.966Z,7.47
2023-08-11T02:07:54.346Z,8.15
2023-08-11T02:10:27.566Z,8.13
2023-08-11T02:13:01.863Z,7.50
2023-08-11T02:15:35.548Z,7.53
2023-08-11T02:18:10.051Z,7.25
2023-08-11T02:20:43.642Z,6.68
2023-08-11T02:23:16.554Z,8.50
2023-08-11T02:25:49.431Z,7.20
2023-08-11T02:28:22.614Z,7.85
2023-08-11T02:30:57.001Z,8.38
2023-08-11T02:33:29.876Z,6.95
2023-08-11T02:36:04.035Z,7.85
2023-08-11T02:38:36.924Z,7.63
2023-08-11T02:41:09.840Z,7.85
2023-08-11T02:43:42.913Z,6.65
2023-08-11T02:46:15.794Z,8.23
2023-08-11T02:48:49.072Z,7.38
2023-08-11T02:51:23.014Z,7.65
2023-08-11T02:53:55.979Z,9.65
2023-08-11T02:56:29.412Z,8.10
2023-08-11T02:59:03.089Z,7.63
2023-08-11T03:01:36.032Z,8.48
2023-08-11T03:04:09.368Z,7.75
2023-08-11T03:06:43.689Z,9.50
2023-08-11T03:09:16.728Z,8.55
2023-08-11T03:11:49.651Z,7.07
2023-08-11T03:14:22.638Z,9.18
2023-08-11T03:16:56.574Z,9.07
2023-08-11T03:19:29.594Z,9.02
2023-08-11T03:22:03.226Z,8.85
2023-08-11T03:24:37.177Z,8.68
2023-08-11T03:27:10.561Z,7.85
2023-08-11T03:29:43.870Z,9.38
2023-08-11T03:32:16.942Z,9.50
2023-08-11T03:34:50.414Z,9.35
2023-08-11T03:37:23.534Z,9.13
2023-08-11T03:39:56.447Z,9.00
2023-08-11T03:42:29.402Z,8.20
2023-08-11T03:45:05.759Z,10.82
2023-08-11T03:47:41.179Z,9.82
2023-08-11T03:50:16.399Z,7.88
2023-08-11T03:52:49.752Z,8.07
2023-08-11T03:55:23.598Z,8.63
2023-08-11T03:57:58.173Z,7.85
2023-08-11T04:00:33.786Z,8.40
2023-08-11T04:03:14.163Z,7.90
2023-08-11T04:05:47.072Z,10.32
2023-08-11T04:08:20.738Z,7.97
2023-08-11T04:10:56.751Z,8.30
2023-08-11T04:13:29.878Z,8.88
2023-08-11T04:16:05.309Z,9.13
2023-08-11T04:18:38.509Z,8.68
2023-08-11T04:21:11.702Z,8.52
2023-08-11T04:23:44.632Z,10.82
2023-08-11T04:26:19.083Z,8.85
2023-08-11T04:28:52.823Z,8.90
2023-08-11T04:31:26.146Z,7.97
2023-08-11T04:33:59.040Z,8.18
2023-08-11T04:36:32.425Z,8.98
2023-08-11T04:39:06.952Z,8.50
2023-08-11T04:41:40.694Z,9.40
2023-08-11T04:44:15.466Z,9.95
2023-08-11T04:46:48.369Z,8.50
2023-08-11T04:49:21.675Z,7.70
2023-08-11T04:51:54.597Z,7.38
2023-08-11T04:54:27.655Z,11.23
2023-08-11T04:57:02.024Z,7.65
2023-08-11T04:59:35.416Z,6.80
2023-08-11T05:02:08.850Z,7.13
2023-08-11T05:04:44.699Z,9.52
2023-08-11T05:07:17.703Z,7.57
2023-08-11T05:09:51.021Z,7.13
2023-08-11T05:12:23.950Z,7.22
2023-08-11T05:14:56.974Z,7.57
2023-08-11T05:17:30.069Z,7.90
2023-08-11T05:20:07.746Z,8.15
2023-08-11T05:22:40.988Z,6.90
2023-08-11T05:25:13.928Z,8.48
2023-08-11T05:27:46.766Z,7.00
2023-08-11T05:30:20.157Z,8.23
2023-08-11T05:32:53.839Z,8.82
2023-08-11T05:35:27.696Z,8.15
2023-08-11T05:38:02.922Z,6.43
2023-08-11T05:40:35.895Z,8.00
2023-08-11T05:43:09.075Z,7.38
2023-08-11T05:45:42.352Z,5.95
2023-08-11T05:48:15.439Z,7.10
2023-08-11T05:50:48.741Z,6.95
2023-08-11T05:53:21.617Z,5.85
2023-08-11T05:55:54.711Z,5.95
2023-08-11T05:58:27.762Z,5.53
2023-08-11T06:01:04.205Z,6.43
2023-08-11T06:03:37.204Z,5.13
2023-08-11T06:06:10.223Z,6.55
2023-08-11T06:08:43.125Z,4.88
2023-08-11T06:11:16.002Z,4.55
2023-08-11T06:13:48.886Z,6.13
2023-08-11T06:16:21.805Z,5.53
2023-08-11T06:18:54.899Z,6.00
2023-08-11T06:21:28.690Z,4.45
2023-08-11T06:24:03.542Z,5.05
2023-08-11T06:26:36.765Z,5.60
2023-08-11T06:29:09.872Z,5.68
2023-08-11T06:31:44.086Z,6.03
2023-08-11T06:34:18.945Z,5.72
2023-08-11T06:36:51.803Z,5.75
2023-08-11T06:39:24.683Z,4.70
2023-08-11T06:41:57.981Z,3.90
2023-08-11T06:44:50.870Z,4.95
2023-08-11T06:47:24.910Z,5.15
2023-08-11T06:49:57.867Z,4.95
2023-08-11T06:52:31.240Z,6.05
2023-08-11T06:55:06.888Z,4.05
2023-08-11T06:57:39.867Z,4.85
2023-08-11T07:00:13.307Z,4.88
2023-08-11T07:02:46.415Z,5.00
2023-08-11T07:05:19.427Z,4.45
2023-08-11T07:07:52.529Z,4.88
2023-08-11T07:10:25.387Z,4.38
2023-08-11T07:12:58.874Z,4.72
2023-08-11T07:15:33.237Z,4.38
2023-08-11T07:18:06.671Z,5.10
2023-08-11T07:20:43.929Z,9.10
2023-08-11T07:23:17.438Z,4.22
2023-08-11T07:25:50.385Z,5.80
2023-08-11T07:28:23.252Z,4.25
2023-08-11T07:30:56.389Z,4.75
2023-08-11T07:33:30.840Z,4.05
2023-08-11T07:36:03.817Z,4.75
2023-08-11T07:38:36.806Z,4.05
2023-08-11T07:41:09.911Z,4.95
2023-08-11T07:43:42.960Z,3.47
2023-08-11T07:46:15.919Z,5.00
2023-08-11T07:48:49.854Z,3.80
2023-08-11T07:51:22.906Z,5.03
2023-08-11T07:53:56.009Z,3.72
2023-08-11T07:56:29.672Z,3.65
2023-08-11T07:59:03.239Z,5.82
2023-08-11T08:01:37.743Z,5.82
2023-08-11T08:04:11.825Z,3.10
2023-08-11T08:06:46.695Z,4.40
2023-08-11T08:09:20.510Z,4.25
2023-08-11T08:11:53.954Z,3.00
2023-08-11T08:14:26.852Z,2.75
2023-08-11T08:17:09.015Z,3.25
2023-08-11T08:19:42.011Z,4.15
2023-08-11T08:22:14.991Z,4.22
2023-08-11T08:24:49.338Z,4.80
2023-08-11T08:27:25.350Z,4.35
2023-08-11T08:29:58.282Z,3.60
2023-08-11T08:32:31.302Z,4.03
2023-08-11T08:35:04.492Z,4.05
2023-08-11T08:37:37.848Z,4.38
2023-08-11T08:40:11.453Z,4.22
2023-08-11T08:42:45.303Z,3.88
2023-08-11T08:45:18.882Z,6.80
2023-08-11T08:47:54.110Z,3.60
2023-08-11T08:50:27.639Z,5.88
2023-08-11T08:53:02.471Z,2.60
2023-08-11T08:55:35.766Z,3.78
2023-08-11T08:58:10.727Z,4.22
2023-08-11T09:00:44.539Z,5.18
2023-08-11T09:03:18.001Z,4.65
2023-08-11T09:05:51.537Z,3.17
2023-08-11T09:08:25.234Z,3.72
2023-08-11T09:10:59.045Z,3.92
2023-08-11T09:13:33.845Z,3.30
2023-08-11T09:16:07.325Z,4.47
2023-08-11T09:18:40.678Z,4.20
2023-08-11T09:21:15.174Z,3.92
2023-08-11T09:23:48.202Z,4.18
2023-08-11T09:26:23.081Z,4.82
2023-08-11T09:28:57.062Z,4.88
2023-08-11T09:31:35.073Z,4.63
2023-08-11T09:34:18.840Z,5.53
2023-08-11T09:36:52.116Z,3.92
2023-08-11T09:39:25.385Z,4.38
2023-08-11T09:41:58.557Z,3.90
2023-08-11T09:44:31.803Z,4.40
2023-08-11T09:47:15.448Z,4.55
2023-08-11T09:49:50.902Z,3.50
2023-08-11T09:52:24.268Z,4.03
2023-08-11T09:54:58.466Z,3.75
2023-08-11T09:57:36.014Z,4.50
2023-08-11T10:00:13.008Z,4.03
2023-08-11T10:02:58.440Z,4.18
2023-08-11T10:05:36.351Z,3.08
2023-08-11T10:08:13.785Z,3.50
2023-08-11T10:10:50.612Z,5.32
2023-08-11T10:13:27.675Z,4.07
2023-08-11T10:16:03.161Z,3.75
2023-08-11T10:18:37.130Z,5.00
2023-08-11T10:21:10.659Z,3.55
2023-08-11T10:23:44.517Z,3.90
2023-08-11T10:26:17.610Z,3.25
2023-08-11T10:28:51.745Z,3.50
2023-08-11T10:31:26.276Z,5.57
2023-08-11T10:34:00.105Z,3.65
2023-08-11T10:36:35.288Z,3.90
2023-08-11T10:39:09.839Z,3.60
2023-08-11T10:41:46.816Z,6.05
2023-08-11T10:44:20.966Z,4.43
2023-08-11T10:46:54.835Z,4.15
2023-08-11T10:49:42.642Z,2.97
2023-08-11T10:52:15.728Z,3.83
2023-08-11T10:54:52.692Z,3.40
2023-08-11T10:57:25.810Z,3.40
2023-08-11T10:59:59.092Z,4.80
2023-08-11T11:02:33.371Z,3.22
2023-08-11T11:05:09.094Z,3.53
2023-08-11T11:07:43.418Z,4.25
2023-08-11T11:10:19.678Z,3.30
2023-08-11T11:12:54.356Z,2.83
2023-08-11T11:15:34.291Z,3.03
2023-08-11T11:18:08.349Z,3.63
2023-08-11T11:20:41.744Z,3.80
2023-08-11T11:23:14.959Z,5.15
2023-08-11T11:25:48.015Z,3.92
2023-08-11T11:28:20.995Z,3.03
2023-08-11T11:30:54.941Z,3.63
2023-08-11T11:33:28.806Z,10.25
2023-08-11T11:36:02.393Z,3.17
2023-08-11T11:38:35.605Z,4.05
2023-08-11T11:41:13.100Z,3.63
2023-08-11T11:43:48.622Z,3.22
2023-08-11T11:46:22.776Z,3.88
2023-08-11T11:48:56.646Z,3.33
2023-08-11T11:51:31.486Z,5.32
2023-08-11T11:54:05.206Z,3.42
2023-08-11T11:56:41.735Z,3.58
2023-08-11T11:59:17.427Z,4.40
2023-08-11T12:01:50.694Z,3.00
2023-08-11T12:04:27.265Z,3.47
2023-08-11T12:07:00.559Z,3.95
2023-08-11T12:09:50.196Z,4.15
2023-08-11T12:12:26.379Z,2.50
2023-08-11T12:15:07.328Z,3.55
2023-08-11T12:17:40.307Z,4.22
2023-08-11T12:20:13.593Z,3.15
2023-08-11T12:22:46.508Z,2.55
2023-08-11T12:25:19.418Z,3.10
2023-08-11T12:27:55.147Z,4.28
2023-08-11T12:30:27.995Z,4.00
2023-08-11T12:33:03.775Z,3.00
2023-08-11T12:35:36.858Z,3.00
2023-08-11T12:38:13.328Z,4.03
2023-08-11T12:40:47.995Z,3.55
2023-08-11T12:43:20.963Z,3.00
2023-08-11T12:45:53.924Z,3.83
2023-08-11T12:48:26.754Z,2.60
2023-08-11T12:50:59.635Z,3.42
2023-08-11T12:53:32.642Z,3.35
2023-08-11T12:56:06.457Z,2.95
2023-08-11T12:58:40.336Z,3.35
2023-08-11T13:01:16.267Z,2.90
2023-08-11T13:03:52.896Z,2.85
2023-08-11T13:06:25.970Z,3.30
2023-08-11T13:08:59.086Z,3.95
2023-08-11T13:11:32.892Z,3.40
2023-08-11T13:14:06.924Z,3.28
2023-08-11T13:16:40.046Z,2.30
2023-08-11T13:19:14.680Z,2.88
2023-08-11T13:21:47.644Z,3.50
2023-08-11T13:24:21.342Z,3.65
2023-08-11T13:26:54.568Z,3.00
2023-08-11T13:29:27.837Z,2.67
2023-08-11T13:32:01.278Z,3.33
2023-08-11T13:34:34.255Z,2.60
2023-08-11T13:37:07.157Z,3.78
2023-08-11T13:39:40.495Z,2.72
2023-08-11T13:42:13.428Z,3.08
2023-08-11T13:44:46.520Z,4.13
2023-08-11T13:47:20.627Z,2.85
2023-08-11T13:49:53.514Z,3.13
2023-08-11T13:52:26.893Z,3.22
2023-08-11T13:55:01.526Z,4.18
2023-08-11T13:57:34.617Z,2.80
2023-08-11T14:00:09.859Z,2.95
2023-08-11T14:02:43.203Z,3.20
2023-08-11T14:05:16.875Z,3.28
2023-08-11T14:07:51.614Z,3.17
2023-08-11T14:10:25.108Z,2.45
2023-08-11T14:12:57.942Z,3.22
2023-08-11T14:15:32.302Z,2.63
2023-08-11T14:18:07.652Z,3.22
2023-08-11T14:20:40.658Z,2.78
2023-08-11T14:23:13.854Z,2.90
2023-08-11T14:25:47.567Z,2.67
2023-08-11T14:28:20.447Z,2.85
2023-08-11T14:30:55.715Z,2.92
2023-08-11T14:33:29.360Z,2.60
2023-08-11T14:36:11.948Z,3.47
2023-08-11T14:38:45.607Z,3.90
2023-08-11T14:41:18.481Z,3.28
2023-08-11T14:43:51.420Z,2.38
2023-08-11T14:46:24.478Z,4.38
2023-08-11T14:48:57.499Z,2.95
2023-08-11T14:51:30.440Z,3.28
2023-08-11T14:54:04.045Z,3.70
2023-08-11T14:56:37.603Z,2.88
2023-08-11T14:59:10.601Z,2.75
2023-08-11T15:01:43.530Z,3.35
2023-08-11T15:04:16.719Z,2.85
2023-08-11T15:06:49.932Z,2.83
2023-08-11T15:09:23.416Z,5.20
2023-08-11T15:11:58.912Z,2.75
2023-08-11T15:14:31.939Z,3.17
2023-08-11T15:17:04.931Z,2.75
2023-08-11T15:19:37.922Z,3.22
2023-08-11T15:22:11.020Z,3.30
2023-08-11T15:24:44.233Z,5.03
2023-08-11T15:27:19.124Z,2.67
2023-08-11T15:29:52.052Z,6.80
2023-08-11T15:32:25.216Z,3.80
2023-08-11T15:34:58.255Z,2.72
2023-08-11T15:37:31.333Z,2.95
2023-08-11T15:40:06.215Z,4.55
2023-08-11T15:42:39.151Z,5.13
2023-08-11T15:45:12.270Z,4.80
2023-08-11T15:47:45.246Z,3.67
2023-08-11T15:50:18.199Z,2.67
2023-08-11T15:52:51.580Z,3.50
2023-08-11T15:55:35.721Z,3.42
2023-08-11T15:58:10.560Z,2.72
2023-08-11T16:00:44.359Z,2.55
2023-08-11T16:03:17.568Z,2.97
2023-08-11T16:05:50.689Z,3.00
2023-08-11T16:08:23.716Z,3.72
2023-08-11T16:10:56.782Z,4.40
2023-08-11T16:13:29.854Z,4.15
2023-08-11T16:16:03.109Z,2.90
2023-08-11T16:18:36.320Z,3.17
2023-08-11T16:21:09.592Z,3.40
2023-08-11T16:23:42.489Z,3.53
2023-08-11T16:26:15.437Z,2.45
2023-08-11T16:28:48.283Z,3.38
2023-08-11T16:31:21.310Z,3.05
2023-08-11T16:33:54.351Z,2.65
2023-08-11T16:36:28.661Z,3.22
2023-08-11T16:39:02.739Z,6.75
2023-08-11T16:41:35.621Z,3.95
2023-08-11T16:44:10.655Z,4.32
2023-08-11T16:46:43.578Z,3.30
2023-08-11T16:49:16.499Z,4.50
2023-08-11T16:51:49.437Z,3.88
2023-08-11T16:54:22.352Z,5.95
2023-08-11T16:56:55.271Z,2.92
2023-08-11T16:59:28.216Z,3.08
2023-08-11T17:02:02.207Z,4.57
2023-08-11T17:04:35.272Z,4.05
2023-08-11T17:07:08.130Z,3.00
2023-08-11T17:09:41.188Z,3.70
2023-08-11T17:12:14.515Z,3.53
2023-08-11T17:14:47.712Z,4.00
2023-08-11T17:17:20.910Z,2.90
2023-08-11T17:19:53.979Z,4.35
2023-08-11T17:22:27.002Z,2.90
2023-08-11T17:25:00.025Z,5.65
2023-08-11T17:27:34.664Z,2.47
2023-08-11T17:30:09.118Z,4.75
2023-08-11T17:32:43.796Z,4.72
2023-08-11T17:37:49.691Z,3.90
2023-08-11T17:40:22.533Z,6.05
2023-08-11T17:42:55.369Z,3.60
2023-08-11T17:45:28.314Z,3.17
2023-08-11T17:48:02.648Z,4.28
2023-08-11T17:50:36.159Z,3.75
2023-08-11T17:53:09.237Z,3.65
2023-08-11T17:55:42.159Z,4.28
2023-08-11T17:58:15.201Z,6.45
2023-08-11T18:00:48.162Z,5.43
2023-08-11T18:05:55.737Z,4.82
2023-08-11T18:08:28.668Z,5.88
2023-08-11T18:11:01.564Z,5.75
2023-08-11T18:13:35.053Z,4.10
2023-08-11T18:16:07.903Z,4.53
2023-08-11T18:18:40.800Z,8.02
2023-08-11T18:21:20.541Z,5.68
2023-08-11T18:23:55.527Z,5.05
2023-08-11T18:26:30.287Z,4.40
2023-08-11T18:29:03.604Z,5.90
2023-08-11T18:31:36.856Z,4.15
2023-08-11T18:34:09.722Z,5.30
2023-08-11T18:36:42.615Z,4.47
2023-08-11T18:39:15.587Z,3.45
2023-08-11T18:41:48.457Z,3.67
2023-08-11T18:44:22.739Z,3.45
2023-08-11T18:46:55.614Z,3.85
2023-08-11T18:49:28.891Z,5.13
2023-08-11T18:52:02.564Z,3.45
2023-08-11T18:54:35.486Z,3.85
2023-08-11T18:57:13.306Z,4.78
2023-08-11T18:59:46.635Z,3.85
2023-08-11T19:02:19.733Z,3.92
2023-08-11T19:04:56.306Z,7.10
2023-08-11T19:07:29.570Z,4.82
2023-08-11T19:10:04.733Z,3.75
2023-08-11T19:12:37.831Z,3.40
2023-08-11T19:15:11.369Z,4.05
2023-08-11T19:17:44.599Z,5.88
2023-08-11T19:20:17.840Z,3.97
2023-08-11T19:22:50.873Z,3.67
2023-08-11T19:25:23.966Z,6.25
2023-08-11T19:27:57.568Z,3.35
2023-08-11T19:30:30.811Z,4.22
2023-08-11T19:33:04.183Z,5.88
2023-08-11T19:35:37.713Z,4.57
2023-08-11T19:38:11.263Z,3.83
2023-08-11T19:40:51.288Z,3.40
2023-08-11T19:43:25.079Z,4.38
2023-08-11T19:46:01.287Z,4.50
2023-08-11T19:48:34.548Z,3.67
2023-08-11T19:51:08.112Z,4.35
2023-08-11T19:53:46.679Z,6.28
2023-08-11T19:56:19.611Z,4.22
2023-08-11T19:58:52.745Z,5.25
2023-08-11T20:01:28.774Z,4.38
2023-08-11T20:04:01.654Z,4.35
2023-08-11T20:06:34.803Z,3.95
2023-08-11T20:09:15.432Z,4.45
2023-08-11T20:11:48.657Z,4.68
2023-08-11T20:14:26.556Z,4.97
2023-08-11T20:16:59.692Z,4.03
2023-08-11T20:19:35.225Z,4.95
2023-08-11T20:22:08.219Z,5.05
2023-08-11T20:24:41.980Z,6.15
2023-08-11T20:27:15.068Z,4.38
2023-08-11T20:29:49.179Z,5.43
2023-08-11T20:32:22.432Z,10.30
2023-08-11T20:34:55.456Z,4.25
2023-08-11T20:37:28.996Z,4.88
2023-08-11T20:40:11.675Z,5.85
2023-08-11T20:42:44.671Z,4.07
2023-08-11T20:45:19.137Z,3.75
2023-08-11T20:47:54.251Z,3.78
2023-08-11T20:53:00.193Z,4.13
2023-08-11T20:55:34.432Z,3.90
2023-08-11T20:58:07.550Z,4.82
2023-08-11T21:00:40.506Z,4.75
2023-08-11T21:03:13.649Z,4.75
2023-08-11T21:05:46.674Z,5.07
2023-08-11T21:08:24.643Z,4.97
2023-08-11T21:10:57.767Z,6.53
2023-08-11T21:13:30.872Z,6.55
2023-08-11T21:16:06.593Z,3.92
2023-08-11T21:18:40.299Z,5.65
2023-08-11T21:21:14.103Z,5.30
2023-08-11T21:23:47.299Z,5.82
2023-08-11T21:26:20.601Z,4.47
2023-08-11T21:28:56.584Z,5.32
2023-08-11T21:31:30.255Z,5.28
2023-08-11T21:34:10.401Z,4.55
2023-08-11T21:36:43.536Z,5.22
2023-08-11T21:39:16.642Z,4.55
2023-08-11T21:41:49.684Z,3.50
2023-08-11T21:44:22.581Z,6.57
2023-08-11T21:46:55.889Z,5.45
2023-08-11T21:49:31.202Z,5.68
2023-08-11T21:52:06.421Z,5.43
2023-08-11T21:57:12.974Z,4.60
2023-08-11T21:59:46.125Z,6.63
2023-08-11T22:02:23.529Z,5.82
2023-08-11T22:05:07.831Z,4.95
2023-08-11T22:07:44.177Z,4.22
2023-08-11T22:10:17.153Z,5.43
2023-08-11T22:12:50.294Z,5.22
2023-08-11T22:15:23.536Z,7.50
2023-08-11T22:17:56.592Z,5.47
2023-08-11T22:20:30.595Z,5.28
2023-08-11T22:23:03.841Z,5.45
2023-08-11T22:25:36.862Z,4.85
2023-08-11T22:28:10.060Z,6.20
2023-08-11T22:30:43.040Z,4.82
2023-08-11T22:33:15.961Z,4.75
2023-08-11T22:35:49.039Z,4.90
2023-08-11T22:38:21.957Z,6.45
2023-08-11T22:40:54.809Z,5.57
2023-08-11T22:43:30.756Z,5.65
2023-08-11T22:46:04.749Z,6.93
2023-08-11T22:48:37.760Z,6.13
2023-08-11T22:51:10.756Z,6.18
2023-08-11T22:53:43.726Z,4.68
2023-08-11T22:56:16.779Z,5.72
2023-08-11T22:58:49.643Z,4.13
2023-08-11T23:01:22.585Z,5.93
2023-08-11T23:03:55.497Z,5.60
2023-08-11T23:06:28.696Z,5.40
2023-08-11T23:09:01.668Z,5.82
2023-08-11T23:11:35.415Z,5.68
2023-08-11T23:14:08.364Z,6.25
2023-08-11T23:16:41.457Z,6.35
2023-08-11T23:19:14.566Z,6.18
2023-08-11T23:21:47.449Z,7.03
2023-08-11T23:24:20.543Z,5.25
2023-08-11T23:26:53.423Z,6.28
2023-08-11T23:29:26.540Z,5.45
2023-08-11T23:31:59.490Z,5.50
2023-08-11T23:34:32.423Z,7.25
2023-08-11T23:37:05.859Z,8.18
2023-08-11T23:39:40.263Z,5.63
2023-08-11T23:42:13.425Z,7.72
2023-08-11T23:44:46.376Z,6.57
2023-08-11T23:47:19.535Z,7.53
2023-08-11T23:49:52.477Z,5.78
2023-08-11T23:52:25.565Z,6.10
2023-08-11T23:55:05.267Z,5.63
2023-08-11T23:57:39.129Z,5.28
